Time;durP1;ratioP1;P1;durP2;ratioP2;P2;SDS_P1;SDS_P2;PMS_P1;PMS_P2;Temp;Humidity;BMP_temperature;BMP_pressure;BME280_temperature;BME280_humidity;BME280_pressure;Samples;Min_cycle;Max_cycle;Signal;HPM_P1;HPM_P2
2023/12/28 00:01:41;;;;;;;3.53;2.67;;;;;;;3.06;100.00;149437.72;13112804;22;20019;-80
2023/12/28 00:06:42;;;;;;;4.28;3.35;;;;;;;3.03;100.00;149430.00;13114741;22;20006;-80
2023/12/28 00:11:44;;;;;;;2.47;2.17;;;;;;;3.02;100.00;149428.72;13087947;22;20066;-81
2023/12/28 00:16:46;;;;;;;6.32;2.58;;;;;;;2.95;100.00;149409.47;13113979;22;20011;-79
2023/12/28 00:21:47;;;;;;;5.03;2.67;;;;;;;2.89;100.00;149395.34;13114081;22;19999;-77
2023/12/28 00:26:49;;;;;;;3.92;2.15;;;;;;;3.24;100.00;149482.63;13087734;22;20025;-80
2023/12/28 00:31:51;;;;;;;2.85;2.45;;;;;;;3.33;100.00;149505.75;13112289;22;20015;-81
2023/12/28 00:36:53;;;;;;;3.50;2.25;;;;;;;3.53;100.00;149557.06;13111256;22;20016;-79
2023/12/28 00:41:55;;;;;;;6.43;2.60;;;;;;;3.50;100.00;149548.13;13087605;22;20026;-79
2023/12/28 00:46:56;;;;;;;4.15;2.53;;;;;;;3.64;100.00;149582.78;13062264;22;20291;-79
2023/12/28 00:51:58;;;;;;;4.55;2.67;;;;;;;3.89;100.00;149645.69;13114120;22;19996;-80
2023/12/28 00:56:59;;;;;;;3.03;2.20;;;;;;;3.61;99.19;149575.06;13085011;22;20015;-81
2023/12/28 01:02:01;;;;;;;3.88;2.08;;;;;;;3.50;99.60;149549.41;13112497;22;20350;-82
2023/12/28 01:07:05;;;;;;;2.50;2.20;;;;;;;3.65;100.00;149585.34;13109997;22;20074;-82
2023/12/28 01:12:07;;;;;;;4.53;1.92;;;;;;;3.43;99.34;149531.41;13111982;22;20004;-79
2023/12/28 01:17:09;;;;;;;3.72;1.83;;;;;;;3.36;98.51;149512.13;13082699;22;20023;-82
2023/12/28 01:22:11;;;;;;;2.88;1.90;;;;;;;3.09;99.74;149445.38;13078747;22;20023;-83
2023/12/28 01:27:13;;;;;;;4.63;2.08;;;;;;;2.74;100.00;149356.81;13102614;22;20015;-83
2023/12/28 01:32:15;;;;;;;3.80;1.80;;;;;;;2.89;99.43;149395.34;13077144;22;20011;-83
2023/12/28 01:37:16;;;;;;;4.25;1.50;;;;;;;3.27;94.58;149491.59;13080152;22;20023;-83
2023/12/28 01:42:18;;;;;;;1.23;0.80;;;;;;;3.86;79.40;149638.00;13103995;22;20022;-82
2023/12/28 01:47:21;;;;;;;0.13;0.13;;;;;;;5.97;59.76;150171.47;13103539;22;20015;-81
2023/12/28 01:52:23;;;;;;;0.65;0.30;;;;;;;7.32;54.71;150511.31;13075678;22;20019;-82
2023/12/28 01:57:25;;;;;;;0.30;0.20;;;;;;;7.84;51.24;150642.72;13106801;22;20026;-82
2023/12/28 02:02:28;;;;;;;0.43;0.30;;;;;;;8.00;51.09;150683.94;13078174;22;20020;-80
2023/12/28 02:07:32;;;;;;;0.20;0.20;;;;;;;8.50;48.57;150810.31;13102938;22;20453;-82
2023/12/28 02:12:34;;;;;;;0.30;0.20;;;;;;;8.29;49.80;150757.41;13092224;22;20040;-82
2023/12/28 02:17:47;;;;;;;0.47;0.30;;;;;;;8.65;45.86;150846.41;13065575;22;20019;-82
2023/12/28 02:22:49;;;;;;;0.35;0.28;;;;;;;9.70;42.01;151112.13;13057912;22;20023;-82
2023/12/28 02:27:51;;;;;;;0.50;0.30;;;;;;;10.01;42.69;151190.84;13046716;22;20015;-81
2023/12/28 02:33:21;;;;;;;0.95;0.30;;;;;;;10.01;41.39;151192.13;13053054;22;20038;-82
2023/12/28 02:38:24;;;;;;;0.82;0.30;;;;;;;9.98;41.77;151183.06;13048872;22;20065;-81
2023/12/28 02:43:26;;;;;;;0.47;0.30;;;;;;;10.21;42.20;151242.44;13047662;22;20068;-82
2023/12/28 02:48:28;;;;;;;0.30;0.25;;;;;;;10.01;42.85;151192.13;13045992;22;20023;-82
2023/12/28 02:53:30;;;;;;;0.35;0.30;;;;;;;10.33;41.67;151273.47;13043344;22;20089;-82
2023/12/28 02:58:31;;;;;;;0.50;0.30;;;;;;;10.46;39.81;151305.75;13042201;22;20015;-82
2023/12/28 03:03:33;;;;;;;0.20;0.20;;;;;;;10.50;40.05;151316.09;13075839;22;20019;-80
2023/12/28 03:08:35;;;;;;;0.32;0.30;;;;;;;10.44;41.63;151299.28;13046352;22;20015;-80
2023/12/28 03:13:37;;;;;;;0.50;0.25;;;;;;;10.41;40.00;151292.84;13073918;22;20019;-81
2023/12/28 03:18:38;;;;;;;0.50;0.40;;;;;;;10.52;39.55;151321.22;13041132;22;20456;-82
2023/12/28 03:23:40;;;;;;;1.23;0.40;;;;;;;10.29;40.70;151261.84;13041687;22;20515;-82
2023/12/28 03:28:42;;;;;;;0.25;0.25;;;;;;;10.39;40.33;151287.66;13042331;22;20099;-81
2023/12/28 03:33:43;;;;;;;0.77;0.30;;;;;;;10.22;41.01;151243.72;13046912;22;20019;-82
2023/12/28 03:38:45;;;;;;;0.30;0.30;;;;;;;10.27;40.63;151256.66;13077966;22;20016;-82
2023/12/28 03:43:48;;;;;;;0.98;0.30;;;;;;;10.42;40.66;151295.44;13052042;22;20023;-81
2023/12/28 03:48:49;;;;;;;1.20;0.30;;;;;;;10.31;40.76;151267.00;13048578;22;20016;-81
2023/12/28 03:53:51;;;;;;;0.65;0.30;;;;;;;10.18;41.96;151233.41;13070814;22;20423;-82
2023/12/28 03:58:53;;;;;;;0.20;0.20;;;;;;;9.96;42.72;151179.22;13047798;22;20082;-81
2023/12/28 04:03:55;;;;;;;0.95;0.50;;;;;;;9.67;43.54;151105.66;13048667;22;20019;-82
2023/12/28 04:08:58;;;;;;;0.57;0.40;;;;;;;9.67;43.35;151104.38;13066213;22;20060;-82
2023/12/28 04:14:00;;;;;;;0.47;0.30;;;;;;;9.97;42.40;151180.50;13068536;22;20043;-82
2023/12/28 04:19:02;;;;;;;1.52;0.40;;;;;;;10.20;41.64;151238.56;13066873;22;20034;-82
2023/12/28 04:24:04;;;;;;;0.47;0.38;;;;;;;10.28;41.92;151259.28;13039912;22;20019;-82
2023/12/28 04:29:07;;;;;;;0.60;0.30;;;;;;;10.29;42.32;151263.16;13064252;22;20038;-81
2023/12/28 04:34:08;;;;;;;0.90;0.60;;;;;;;10.18;43.06;151234.72;13037251;22;20343;-81
2023/12/28 04:39:12;;;;;;;0.45;0.40;;;;;;;10.28;44.29;151260.56;13079500;22;20011;-84
2023/12/28 04:44:14;;;;;;;0.40;0.40;;;;;;;10.50;44.17;151314.81;13054710;22;20019;-83
2023/12/28 04:49:16;;;;;;;0.70;0.40;;;;;;;10.78;43.19;151385.81;13078057;22;20011;-83
2023/12/28 04:54:18;;;;;;;0.47;0.40;;;;;;;10.82;44.39;151397.44;13080686;22;20030;-83
2023/12/28 04:59:20;;;;;;;0.80;0.50;;;;;;;10.66;45.86;151356.09;13054807;22;20042;-83
2023/12/28 05:04:22;;;;;;;1.55;0.50;;;;;;;10.91;45.16;151418.09;13053593;22;20019;-83
2023/12/28 05:09:25;;;;;;;1.70;0.60;;;;;;;10.90;45.07;151416.81;13071883;22;20019;-83
2023/12/28 05:14:26;;;;;;;0.30;0.30;;;;;;;10.91;45.67;151419.38;13048311;22;20015;-83
2023/12/28 05:19:28;;;;;;;2.53;0.50;;;;;;;10.79;47.19;151388.38;13071492;22;20021;-83
2023/12/28 05:24:30;;;;;;;0.40;0.40;;;;;;;11.11;46.45;151471.06;13070208;22;20021;-82
2023/12/28 05:29:32;;;;;;;0.40;0.40;;;;;;;11.17;47.43;151483.97;13067617;22;20030;-83
2023/12/28 05:34:33;;;;;;;1.02;0.60;;;;;;;11.17;47.93;151483.97;13040972;22;20019;-83
2023/12/28 05:39:35;;;;;;;0.77;0.40;;;;;;;10.72;51.18;151371.63;13041381;22;20026;-83
2023/12/28 05:44:37;;;;;;;1.00;0.40;;;;;;;10.88;51.63;151410.34;13072300;22;20449;-83
2023/12/28 05:49:39;;;;;;;0.88;0.60;;;;;;;10.86;52.10;151407.75;13068874;22;20031;-82
2023/12/28 05:54:42;;;;;;;1.60;0.60;;;;;;;10.90;52.62;151415.53;13080690;22;20042;-82
2023/12/28 05:59:44;;;;;;;0.95;0.40;;;;;;;11.05;52.64;151455.53;13070751;22;20022;-83
2023/12/28 06:04:45;;;;;;;0.50;0.40;;;;;;;10.91;54.31;151418.09;13017592;22;20019;-83
2023/12/28 06:09:48;;;;;;;1.02;0.52;;;;;;;10.93;55.54;151424.53;13041766;22;20026;-83
2023/12/28 06:14:50;;;;;;;0.75;0.47;;;;;;;11.06;54.86;151456.81;13070719;22;20022;-83
2023/12/28 06:19:52;;;;;;;0.43;0.40;;;;;;;10.89;56.64;151414.25;13067906;22;20011;-84
2023/12/28 06:24:54;;;;;;;0.63;0.38;;;;;;;10.61;58.34;151343.19;13069415;22;20090;-83
2023/12/28 06:29:56;;;;;;;0.80;0.40;;;;;;;10.73;58.44;151374.19;13041234;22;20018;-83
2023/12/28 06:34:58;;;;;;;0.70;0.50;;;;;;;10.68;59.25;151360.00;13068647;22;20022;-83
2023/12/28 06:40:00;;;;;;;0.85;0.43;;;;;;;10.68;59.37;151361.28;13076692;22;20098;-82
2023/12/28 06:45:01;;;;;;;0.60;0.50;;;;;;;10.78;59.27;151385.81;13067758;22;20047;-82
2023/12/28 06:50:04;;;;;;;0.80;0.70;;;;;;;10.89;58.99;151414.25;13041791;22;20034;-83
2023/12/28 06:55:06;;;;;;;0.55;0.45;;;;;;;10.75;59.94;151379.31;13068818;22;20019;-83
2023/12/28 07:00:08;;;;;;;1.20;0.50;;;;;;;10.79;59.84;151388.38;13069217;22;20019;-83
2023/12/28 07:05:09;;;;;;;0.63;0.40;;;;;;;10.88;59.94;151411.63;13070045;22;20042;-83
2023/12/28 07:10:11;;;;;;;0.60;0.38;;;;;;;10.68;60.91;151360.00;13045819;22;20075;-83
2023/12/28 07:15:14;;;;;;;0.77;0.50;;;;;;;10.77;60.70;151384.53;13076314;22;20019;-83
2023/12/28 07:20:16;;;;;;;0.65;0.65;;;;;;;10.76;60.79;151381.94;13081947;22;20026;-82
2023/12/28 07:25:18;;;;;;;0.77;0.60;;;;;;;10.69;61.38;151363.84;13074336;22;20030;-84
2023/12/28 07:30:20;;;;;;;1.50;0.60;;;;;;;10.76;60.23;151380.66;13070250;22;20091;-81
2023/12/28 07:35:21;;;;;;;0.85;0.60;;;;;;;10.53;61.74;151322.53;13071851;22;20015;-85
2023/12/28 07:40:23;;;;;;;1.13;0.60;;;;;;;10.51;62.23;151317.38;13072414;22;20018;-82
2023/12/28 07:45:25;;;;;;;0.80;0.60;;;;;;;10.49;62.14;151313.53;13069649;22;20015;-83
2023/12/28 07:50:27;;;;;;;1.48;0.60;;;;;;;10.57;62.17;151332.84;13069992;22;20015;-82
2023/12/28 07:55:29;;;;;;;1.00;0.80;;;;;;;10.39;63.21;151287.66;13072563;22;20015;-83
2023/12/28 08:00:30;;;;;;;1.40;1.00;;;;;;;10.51;63.00;151317.38;13070212;22;20011;-83
2023/12/28 08:05:32;;;;;;;1.30;0.60;;;;;;;10.45;63.51;151303.19;13069792;22;20016;-83
2023/12/28 08:10:34;;;;;;;0.88;0.65;;;;;;;10.52;63.89;151321.22;13071241;22;20015;-82
2023/12/28 08:15:35;;;;;;;0.63;0.63;;;;;;;10.66;63.13;151356.09;13071499;22;20019;-84
2023/12/28 08:20:37;;;;;;;0.70;0.50;;;;;;;10.42;65.62;151294.13;13077123;22;20011;-83
2023/12/28 08:25:39;;;;;;;0.93;0.65;;;;;;;10.49;65.41;151312.19;13085481;22;20019;-83
2023/12/28 08:30:41;;;;;;;0.75;0.45;;;;;;;10.46;66.02;151305.75;13024707;22;20011;-83
2023/12/28 08:35:43;;;;;;;1.08;0.55;;;;;;;10.48;65.54;151310.91;13083421;22;20016;-81
2023/12/28 08:40:44;;;;;;;1.83;0.73;;;;;;;10.55;65.26;151329.00;13082943;22;20317;-81
2023/12/28 08:45:46;;;;;;;0.50;0.50;;;;;;;10.63;65.26;151347.09;13075197;22;20037;-81
2023/12/28 08:50:48;;;;;;;1.02;0.70;;;;;;;10.38;66.55;151283.81;13077517;22;20046;-80
2023/12/28 08:55:50;;;;;;;1.92;1.15;;;;;;;10.38;66.69;151285.09;13050725;22;20019;-82
2023/12/28 09:00:52;;;;;;;0.85;0.50;;;;;;;10.43;67.33;151298.00;13044759;22;20022;-81
2023/12/28 09:05:54;;;;;;;0.57;0.57;;;;;;;10.48;67.20;151310.91;13043635;22;20019;-80
2023/12/28 09:10:55;;;;;;;0.60;0.50;;;;;;;10.53;66.73;151323.81;13042957;22;20427;-82
2023/12/28 09:15:57;;;;;;;0.50;0.50;;;;;;;10.49;66.55;151312.19;13070814;22;20019;-81
2023/12/28 09:20:59;;;;;;;0.65;0.50;;;;;;;10.48;67.24;151309.63;13067077;22;20555;-82
2023/12/28 09:26:05;;;;;;;0.50;0.43;;;;;;;10.60;65.62;151340.63;13069416;22;20015;-82
2023/12/28 09:31:07;;;;;;;0.47;0.40;;;;;;;10.71;65.52;151369.00;13041424;22;20015;-81
2023/12/28 09:36:09;;;;;;;0.60;0.40;;;;;;;10.85;65.06;151403.91;13069911;22;20023;-81
2023/12/28 09:41:16;;;;;;;0.60;0.60;;;;;;;10.61;66.98;151344.47;13071822;22;20011;-82
2023/12/28 09:46:18;;;;;;;0.70;0.52;;;;;;;10.81;65.34;151393.56;13088155;22;20015;-82
2023/12/28 09:51:19;;;;;;;0.68;0.60;;;;;;;10.84;65.43;151401.28;13051665;22;20125;-82
2023/12/28 09:56:22;;;;;;;0.90;0.45;;;;;;;10.69;65.45;151363.84;13070970;22;20026;-81
2023/12/28 10:01:24;;;;;;;0.80;0.50;;;;;;;10.81;64.33;151393.56;13068531;22;20090;-84
2023/12/28 10:06:26;;;;;;;0.88;0.52;;;;;;;10.79;63.35;151389.66;13068176;22;20026;-83
2023/12/28 10:11:29;;;;;;;0.90;0.52;;;;;;;10.77;63.50;151383.22;13077791;22;20015;-83
2023/12/28 10:16:30;;;;;;;1.40;0.45;;;;;;;10.66;64.63;151354.81;13075297;22;20022;-83
2023/12/28 10:21:32;;;;;;;0.90;0.70;;;;;;;10.60;65.19;151341.91;13069110;22;20066;-83
2023/12/28 10:26:34;;;;;;;0.95;0.60;;;;;;;10.58;65.42;151335.41;13069261;22;20349;-83
2023/12/28 10:31:36;;;;;;;1.27;0.40;;;;;;;10.72;64.30;151371.63;13067020;22;20018;-82
2023/12/28 10:36:41;;;;;;;0.63;0.60;;;;;;;10.66;63.85;151354.81;13068416;22;20120;-82
2023/12/28 10:41:48;;;;;;;0.68;0.55;;;;;;;10.48;65.62;151309.63;13069381;22;20011;-83
2023/12/28 10:46:55;;;;;;;2.25;0.70;;;;;;;10.53;63.75;151323.81;13091140;22;20026;-82
2023/12/28 10:51:57;;;;;;;1.05;0.55;;;;;;;10.68;63.31;151361.28;13087698;22;20011;-82
2023/12/28 10:57:11;;;;;;;1.10;0.60;;;;;;;10.55;64.71;151327.72;13082832;22;20015;-82
2023/12/28 11:02:21;;;;;;;1.27;0.70;;;;;;;10.57;63.88;151334.13;13073067;22;20011;-82
2023/12/28 11:07:23;;;;;;;0.43;0.40;;;;;;;10.64;62.21;151350.94;13070280;22;20043;-82
2023/12/28 11:12:26;;;;;;;0.70;0.50;;;;;;;10.51;63.37;151317.38;13068245;22;20038;-83
2023/12/28 11:17:31;;;;;;;0.70;0.45;;;;;;;10.79;60.63;151388.38;13041172;22;20019;-81
2023/12/28 11:22:33;;;;;;;0.70;0.70;;;;;;;10.68;62.97;151360.00;13068508;22;20384;-81
2023/12/28 11:27:36;;;;;;;0.63;0.52;;;;;;;10.83;60.25;151400.00;13070123;22;20030;-82
2023/12/28 11:32:42;;;;;;;0.60;0.50;;;;;;;10.86;59.28;151406.47;13068597;22;20067;-82
2023/12/28 11:37:48;;;;;;;1.30;0.60;;;;;;;10.76;60.82;151380.66;13042232;22;20388;-81
2023/12/28 11:42:51;;;;;;;0.50;0.40;;;;;;;10.83;59.88;151398.72;13067774;22;20019;-83
2023/12/28 11:48:01;;;;;;;2.15;0.50;;;;;;;11.06;58.74;151458.09;13040772;22;20077;-82
2023/12/28 11:53:03;;;;;;;0.65;0.60;;;;;;;10.95;58.60;151428.44;13072095;22;20084;-81
2023/12/28 11:58:05;;;;;;;0.70;0.43;;;;;;;11.22;57.52;151496.88;13071368;22;20024;-81
2023/12/28 12:03:10;;;;;;;0.73;0.43;;;;;;;11.07;57.98;151460.72;13071972;22;20340;-81
2023/12/28 12:08:14;;;;;;;0.73;0.63;;;;;;;10.68;59.39;151360.00;13072280;22;20015;-83
2023/12/28 12:13:16;;;;;;;0.70;0.60;;;;;;;10.81;59.67;151394.84;13070308;22;20314;-82
2023/12/28 12:18:18;;;;;;;1.17;1.08;;;;;;;10.89;60.14;151412.91;13044463;22;20015;-82
2023/12/28 12:23:19;;;;;;;1.38;0.80;;;;;;;11.25;59.53;151505.94;13046647;22;20018;-82
2023/12/28 12:28:21;;;;;;;0.35;0.35;;;;;;;11.04;59.38;151451.69;13080724;22;20034;-82
2023/12/28 12:33:25;;;;;;;1.92;0.70;;;;;;;10.70;61.83;151365.13;13078361;22;20038;-81
2023/12/28 12:38:27;;;;;;;0.40;0.40;;;;;;;10.73;61.63;151372.91;13041924;22;20019;-83
2023/12/28 12:43:29;;;;;;;0.45;0.45;;;;;;;10.28;64.71;151260.56;13071106;22;20022;-84
2023/12/28 12:48:31;;;;;;;0.40;0.40;;;;;;;10.32;64.07;151269.63;13070065;22;20039;-82
2023/12/28 12:53:39;;;;;;;0.50;0.50;;;;;;;10.23;63.71;151246.34;13068371;22;20468;-83
2023/12/28 12:58:40;;;;;;;0.95;0.55;;;;;;;10.41;63.33;151292.84;13041002;22;20019;-84
2023/12/28 13:03:42;;;;;;;0.70;0.30;;;;;;;10.25;64.80;151251.53;13070800;22;20400;-82
2023/12/28 13:08:48;;;;;;;1.67;0.50;;;;;;;10.02;66.13;151193.41;13075742;22;20019;-83
2023/12/28 13:13:50;;;;;;;0.98;0.60;;;;;;;10.06;65.98;151205.03;13047356;22;20026;-81
2023/12/28 13:18:52;;;;;;;0.60;0.43;;;;;;;9.98;66.94;151183.06;13071376;22;20019;-81
2023/12/28 13:23:53;;;;;;;0.70;0.50;;;;;;;10.07;65.62;151206.31;13045539;22;20015;-80
2023/12/28 13:28:56;;;;;;;0.88;0.40;;;;;;;10.00;66.35;151189.50;13049992;22;20015;-79
2023/12/28 13:33:58;;;;;;;0.38;0.38;;;;;;;9.95;67.15;151176.59;13082624;22;20015;-82
2023/12/28 13:39:00;;;;;;;0.80;0.63;;;;;;;10.13;66.29;151220.50;13074545;22;20019;-81
2023/12/28 13:44:04;;;;;;;0.80;0.50;;;;;;;10.15;66.38;151225.69;13048796;22;20021;-81
2023/12/28 13:49:07;;;;;;;0.80;0.60;;;;;;;10.04;67.24;151199.84;13102232;22;20026;-82
2023/12/28 13:54:09;;;;;;;0.68;0.68;;;;;;;9.82;68.18;151143.06;13106507;22;20020;-82
2023/12/28 13:59:11;;;;;;;0.82;0.50;;;;;;;9.90;67.68;151163.72;13107694;22;20019;-82
2023/12/28 14:04:13;;;;;;;0.93;0.40;;;;;;;9.88;68.09;151158.56;13100468;22;20019;-82
2023/12/28 14:09:19;;;;;;;0.60;0.40;;;;;;;9.90;68.10;151163.72;13077377;22;20011;-82
2023/12/28 14:14:21;;;;;;;0.95;0.52;;;;;;;9.67;68.97;151105.66;13074640;22;20022;-81
2023/12/28 14:19:23;;;;;;;1.25;0.60;;;;;;;9.51;70.18;151064.34;13049431;22;20035;-80
2023/12/28 14:24:26;;;;;;;0.93;0.50;;;;;;;9.35;70.85;151024.38;13073552;22;20019;-81
2023/12/28 14:29:28;;;;;;;0.60;0.40;;;;;;;9.30;70.89;151011.50;13044424;22;20011;-80
2023/12/28 14:34:31;;;;;;;1.45;0.38;;;;;;;9.23;71.31;150993.41;13044324;22;20026;-81
2023/12/28 14:39:33;;;;;;;0.40;0.40;;;;;;;9.03;71.79;150943.09;13045997;22;20022;-81
2023/12/28 14:44:35;;;;;;;0.95;0.50;;;;;;;9.04;71.65;150947.00;13076946;22;20030;-82
2023/12/28 14:49:37;;;;;;;0.75;0.40;;;;;;;8.94;71.90;150919.88;13056401;22;20345;-80
2023/12/28 14:54:39;;;;;;;0.60;0.40;;;;;;;8.62;73.35;150838.66;13070879;22;20079;-81
2023/12/28 14:59:40;;;;;;;1.40;0.43;;;;;;;8.42;74.62;150788.41;13069682;22;20084;-80
2023/12/28 15:04:42;;;;;;;0.85;0.45;;;;;;;8.55;74.66;150821.94;13043191;22;20072;-80
2023/12/28 15:09:45;;;;;;;1.48;0.60;;;;;;;8.47;74.42;150802.56;13014347;22;20019;-80
2023/12/28 15:14:47;;;;;;;1.13;0.50;;;;;;;8.23;75.35;150740.63;13069303;22;20015;-81
2023/12/28 15:19:49;;;;;;;1.05;0.80;;;;;;;7.90;77.85;150656.91;13075984;22;20441;-82
2023/12/28 15:24:51;;;;;;;0.75;0.52;;;;;;;7.75;78.50;150619.53;13079283;22;20022;-81
2023/12/28 15:29:53;;;;;;;1.00;0.80;;;;;;;7.60;79.36;150582.16;13049023;22;20326;-80
2023/12/28 15:34:54;;;;;;;1.02;0.70;;;;;;;7.39;81.02;150529.34;13046761;22;20396;-80
2023/12/28 15:39:56;;;;;;;0.63;0.60;;;;;;;7.34;80.59;150517.75;13075841;22;20022;-80
2023/12/28 15:44:58;;;;;;;1.05;0.85;;;;;;;7.24;81.51;150492.00;13077200;22;20042;-82
2023/12/28 15:50:04;;;;;;;1.60;0.93;;;;;;;7.26;80.83;150497.19;13071500;22;20012;-81
2023/12/28 15:55:06;;;;;;;1.20;0.90;;;;;;;7.28;81.67;150502.31;13072988;22;20026;-80
2023/12/28 16:00:09;;;;;;;1.50;0.80;;;;;;;7.30;81.59;150507.47;13072407;22;20018;-80
2023/12/28 16:05:14;;;;;;;1.13;0.80;;;;;;;7.25;81.56;150494.56;13075687;22;20049;-81
2023/12/28 16:10:15;;;;;;;1.30;0.65;;;;;;;7.25;81.89;150494.56;13074173;22;20015;-81
2023/12/28 16:15:18;;;;;;;0.93;0.60;;;;;;;7.27;81.48;150499.75;13072405;22;20019;-81
2023/12/28 16:20:20;;;;;;;1.38;0.95;;;;;;;7.45;80.38;150543.53;13071486;22;20011;-81
2023/12/28 16:25:22;;;;;;;0.95;0.80;;;;;;;7.40;80.54;150530.66;13069254;22;20026;-81
2023/12/28 16:30:23;;;;;;;2.00;0.60;;;;;;;7.29;80.72;150503.59;13070099;22;20366;-81
2023/12/28 16:35:25;;;;;;;0.93;0.60;;;;;;;7.31;80.82;150508.75;13068747;22;20360;-82
2023/12/28 16:40:27;;;;;;;0.77;0.60;;;;;;;7.58;78.83;150577.03;13074120;22;20011;-80
2023/12/28 16:45:28;;;;;;;1.10;0.60;;;;;;;7.46;79.53;150547.38;13074740;22;20449;-82
2023/12/28 16:50:30;;;;;;;1.30;0.70;;;;;;;7.65;77.99;150593.75;13073116;22;20019;-81
2023/12/28 16:55:32;;;;;;;0.88;0.70;;;;;;;7.66;77.46;150597.66;13073611;22;20015;-82
2023/12/28 17:00:36;;;;;;;1.42;0.88;;;;;;;7.53;77.61;150565.44;13074795;22;20097;-81
2023/12/28 17:05:57;;;;;;;1.38;0.75;;;;;;;7.74;76.09;150616.94;13052264;22;20087;-79
2023/12/28 17:10:59;;;;;;;1.92;1.42;;;;;;;8.02;74.20;150687.84;13078748;22;20319;-79
2023/12/28 17:16:01;;;;;;;2.03;1.45;;;;;;;7.95;74.58;150671.06;13082413;22;20030;-79
2023/12/28 17:21:06;;;;;;;1.00;0.73;;;;;;;7.80;75.38;150633.72;13074194;22;20015;-80
2023/12/28 17:26:23;;;;;;;0.80;0.60;;;;;;;7.92;75.10;150663.31;13085832;22;20015;-79
2023/12/28 17:31:27;;;;;;;;;;;;;;;7.96;75.04;150673.63;13075322;22;20476;-79
2023/12/28 17:36:31;;;;;;;0.57;0.55;;;;;;;7.93;75.47;150665.91;13044966;22;19964;-79
2023/12/28 17:41:37;;;;;;;0.73;0.50;;;;;;;7.86;75.61;150647.88;13043347;22;20429;-80
2023/12/28 17:46:50;;;;;;;1.02;0.77;;;;;;;7.96;75.39;150672.34;13045775;22;20376;-79
2023/12/28 17:51:55;;;;;;;1.15;0.77;;;;;;;7.90;75.55;150658.19;13045921;22;20015;-79
2023/12/28 17:56:57;;;;;;;1.95;1.40;;;;;;;7.90;75.21;150658.19;13071634;22;20456;-80
2023/12/28 18:01:59;;;;;;;1.42;0.90;;;;;;;7.77;75.96;150625.97;13071929;22;20440;-79
2023/12/28 18:07:02;;;;;;;1.23;0.90;;;;;;;7.71;76.54;150610.53;13044044;22;20061;-79
2023/12/28 18:12:04;;;;;;;0.70;0.68;;;;;;;7.82;76.15;150638.84;13070852;22;20471;-80
2023/12/28 18:17:06;;;;;;;1.25;0.90;;;;;;;7.84;76.43;150644.00;13072108;22;20078;-80
2023/12/28 18:22:07;;;;;;;1.10;0.77;;;;;;;7.82;76.80;150638.84;13070952;22;20019;-80
2023/12/28 18:27:09;;;;;;;0.90;0.80;;;;;;;7.63;78.12;150588.63;13072547;22;20019;-80
2023/12/28 18:32:11;;;;;;;1.42;0.90;;;;;;;7.71;78.45;150609.25;13072033;22;20071;-80
2023/12/28 18:37:16;;;;;;;0.88;0.80;;;;;;;7.62;79.17;150587.34;13072044;22;20015;-79
2023/12/28 18:42:18;;;;;;;1.15;0.82;;;;;;;7.63;80.38;150589.91;13070688;22;20031;-79
2023/12/28 18:47:20;;;;;;;1.05;0.90;;;;;;;7.66;80.68;150597.66;13068517;22;20027;-79
2023/12/28 18:52:22;;;;;;;1.50;1.10;;;;;;;7.89;80.65;150655.59;13068811;22;20346;-79
2023/12/28 18:57:24;;;;;;;1.50;1.00;;;;;;;7.91;80.79;150659.47;13070949;22;20041;-79
2023/12/28 19:02:27;;;;;;;1.77;0.90;;;;;;;7.99;80.59;150681.38;13069281;22;20012;-80
2023/12/28 19:07:29;;;;;;;1.02;0.80;;;;;;;7.96;81.13;150672.34;13065877;22;20041;-80
2023/12/28 19:12:31;;;;;;;1.73;0.98;;;;;;;7.84;82.02;150642.72;13068630;22;20019;-78
2023/12/28 19:17:34;;;;;;;0.98;0.80;;;;;;;8.06;81.01;150699.44;13069213;22;20015;-79
2023/12/28 19:22:36;;;;;;;1.45;1.02;;;;;;;7.90;82.51;150656.91;13042179;22;20042;-80
2023/12/28 19:27:38;;;;;;;1.35;0.80;;;;;;;8.13;81.87;150716.16;13069095;22;20341;-79
2023/12/28 19:32:40;;;;;;;1.02;0.77;;;;;;;7.98;82.50;150677.53;13073617;22;20391;-81
2023/12/28 19:37:41;;;;;;;1.13;0.75;;;;;;;8.10;82.01;150708.41;13050426;22;20023;-81
2023/12/28 19:42:43;;;;;;;0.88;0.60;;;;;;;8.19;81.92;150731.66;13076838;22;20017;-83
2023/12/28 19:47:45;;;;;;;0.88;0.68;;;;;;;8.23;81.23;150740.63;13051456;22;20079;-80
2023/12/28 19:52:47;;;;;;;1.98;0.73;;;;;;;8.21;82.01;150736.78;13049626;22;20011;-81
2023/12/28 19:57:48;;;;;;;1.05;0.60;;;;;;;8.43;80.98;150792.25;13050993;22;20019;-81
2023/12/28 20:02:50;;;;;;;1.45;0.70;;;;;;;8.41;81.08;150785.78;13028731;22;20019;-80
2023/12/28 20:07:52;;;;;;;0.60;0.50;;;;;;;8.35;81.68;150771.59;13029264;22;20023;-81
2023/12/28 20:12:54;;;;;;;0.73;0.50;;;;;;;8.41;80.92;150787.13;13030015;22;20026;-81
2023/12/28 20:17:56;;;;;;;1.00;0.57;;;;;;;8.46;80.48;150798.72;13055617;22;20042;-80
2023/12/28 20:22:58;;;;;;;0.65;0.50;;;;;;;8.38;80.65;150778.09;13031438;22;20011;-81
2023/12/28 20:28:01;;;;;;;0.88;0.45;;;;;;;8.34;80.83;150770.28;13083529;22;20026;-82
2023/12/28 20:33:03;;;;;;;0.65;0.50;;;;;;;8.43;80.83;150790.97;13057738;22;20102;-82
2023/12/28 20:38:06;;;;;;;1.10;0.60;;;;;;;8.48;80.28;150803.84;13056223;22;20019;-81
2023/12/28 20:43:07;;;;;;;0.85;0.50;;;;;;;8.25;81.46;150745.81;13056183;22;20020;-82
2023/12/28 20:48:10;;;;;;;1.25;0.52;;;;;;;8.04;82.86;150694.25;13054646;22;20019;-81
2023/12/28 20:53:12;;;;;;;0.68;0.65;;;;;;;8.04;82.82;150694.25;13056473;22;20015;-80
2023/12/28 20:58:14;;;;;;;0.55;0.52;;;;;;;8.13;83.10;150716.16;13055705;22;20011;-83
2023/12/28 21:03:16;;;;;;;0.88;0.60;;;;;;;8.43;80.88;150790.97;13053939;22;20105;-82
2023/12/28 21:08:18;;;;;;;0.93;0.50;;;;;;;8.28;81.71;150753.56;13030692;22;20022;-82
2023/12/28 21:13:19;;;;;;;0.50;0.50;;;;;;;8.29;81.77;150757.41;13057074;22;20019;-82
2023/12/28 21:18:21;;;;;;;1.65;0.70;;;;;;;8.20;81.77;150734.22;13028372;22;20123;-83
2023/12/28 21:23:32;;;;;;;0.65;0.50;;;;;;;8.12;82.14;150712.31;13029457;22;20484;-81
2023/12/28 21:28:34;;;;;;;0.85;0.52;;;;;;;8.23;81.52;150740.63;13056438;22;20030;-82
2023/12/28 21:33:35;;;;;;;0.57;0.40;;;;;;;8.32;80.81;150763.84;13057869;22;20019;-80
2023/12/28 21:38:37;;;;;;;0.73;0.43;;;;;;;8.31;80.72;150762.56;13080677;22;20127;-80
2023/12/28 21:43:39;;;;;;;1.15;0.50;;;;;;;8.34;80.60;150769.00;13051369;22;20489;-80
2023/12/28 21:48:41;;;;;;;0.50;0.50;;;;;;;8.11;81.79;150711.03;13080926;22;20037;-81
2023/12/28 21:53:43;;;;;;;0.40;0.40;;;;;;;7.88;82.96;150651.72;13054201;22;20035;-81
2023/12/28 21:58:45;;;;;;;0.38;0.32;;;;;;;7.57;83.93;150574.47;13077717;22;20022;-80
2023/12/28 22:03:47;;;;;;;1.73;0.88;;;;;;;7.37;86.25;150524.19;13029907;22;20443;-81
2023/12/28 22:08:48;;;;;;;1.88;0.77;;;;;;;7.37;86.60;150524.19;13077533;22;20067;-80
2023/12/28 22:13:50;;;;;;;0.90;0.60;;;;;;;7.26;86.79;150497.19;13051318;22;20457;-81
2023/12/28 22:18:52;;;;;;;0.70;0.50;;;;;;;7.21;86.57;150482.97;13077690;22;20015;-80
2023/12/28 22:23:54;;;;;;;0.73;0.50;;;;;;;7.10;87.06;150454.66;13051376;22;20034;-80
2023/12/28 22:28:55;;;;;;;0.77;0.52;;;;;;;6.87;87.66;150398.03;13050559;22;20049;-81
2023/12/28 22:33:57;;;;;;;0.90;0.60;;;;;;;6.83;89.00;150389.00;13049391;22;20015;-80
2023/12/28 22:38:59;;;;;;;0.73;0.50;;;;;;;7.14;85.82;150464.97;13050451;22;20041;-80
2023/12/28 22:44:01;;;;;;;0.50;0.50;;;;;;;7.50;82.36;150556.41;13051110;22;20022;-80
2023/12/28 22:49:02;;;;;;;0.50;0.40;;;;;;;7.51;80.84;150560.25;13051321;22;20357;-81
2023/12/28 22:54:04;;;;;;;0.50;0.40;;;;;;;7.62;79.39;150587.34;13049607;22;20015;-80
2023/12/28 22:59:06;;;;;;;0.55;0.52;;;;;;;7.73;78.42;150615.66;13049275;22;20365;-79
2023/12/28 23:04:08;;;;;;;1.25;0.60;;;;;;;7.64;78.24;150591.19;13078269;22;20016;-80
2023/12/28 23:09:10;;;;;;;0.40;0.40;;;;;;;7.32;80.09;150512.59;13074826;22;20327;-81
2023/12/28 23:14:11;;;;;;;0.63;0.40;;;;;;;7.64;78.42;150592.47;13076011;22;20327;-79
2023/12/28 23:19:13;;;;;;;0.40;0.40;;;;;;;7.73;77.82;150615.66;13047695;22;20020;-79